Time;durP1;ratioP1;P1;durP2;ratioP2;P2;SDS_P1;SDS_P2;PMS_P1;PMS_P2;Temp;Humidity;BMP_temperature;BMP_pressure;BME280_temperature;BME280_humidity;BME280_pressure;Samples;Min_cycle;Max_cycle;Signal;HPM_P1;HPM_P2
2023/04/14 00:00:35;;;;;;;2.30;1.70;;;6.70;99.90;;;;;;8261387;28;20234;-72
2023/04/14 00:04:36;;;;;;;2.03;1.50;;;6.70;99.90;;;;;;8264824;28;20444;-71
2023/04/14 00:08:40;;;;;;;2.23;1.67;;;6.70;99.90;;;;;;8263132;28;20628;-71
2023/04/14 00:12:41;;;;;;;2.67;1.57;;;6.70;99.90;;;;;;8258663;28;20201;-71
2023/04/14 00:16:42;;;;;;;3.00;1.60;;;6.70;99.90;;;;;;8261560;28;20199;-71
2023/04/14 00:20:43;;;;;;;2.37;1.40;;;6.70;99.90;;;;;;8267813;28;20245;-71
2023/04/14 00:24:45;;;;;;;1.73;1.20;;;6.70;99.90;;;;;;8264293;28;20199;-71
2023/04/14 00:28:46;;;;;;;2.77;2.13;;;6.70;99.90;;;;;;8264337;28;20249;-71
2023/04/14 00:32:47;;;;;;;3.57;2.60;;;6.70;99.90;;;;;;8267851;28;20199;-71
2023/04/14 00:36:48;;;;;;;3.70;2.50;;;6.70;1.00;;;;;;8261730;28;20203;-71
2023/04/14 00:40:49;;;;;;;2.20;2.00;;;6.70;1.00;;;;;;8255996;28;20187;-71
2023/04/14 00:44:50;;;;;;;1.90;1.53;;;6.70;1.00;;;;;;8259677;28;20195;-71
2023/04/14 00:48:54;;;;;;;2.93;1.33;;;6.70;1.00;;;;;;8263824;28;20200;-71
2023/04/14 00:52:56;;;;;;;2.73;1.73;;;6.60;1.00;;;;;;8264147;28;20187;-71
2023/04/14 00:56:57;;;;;;;2.73;2.00;;;6.60;1.00;;;;;;8263075;28;20266;-72
2023/04/14 01:00:59;;;;;;;2.47;2.13;;;6.60;99.90;;;;;;8265498;28;20286;-72
2023/04/14 01:05:00;;;;;;;3.97;1.90;;;6.60;99.90;;;;;;8259234;28;20183;-71
2023/04/14 01:09:02;;;;;;;3.40;1.90;;;6.60;99.90;;;;;;8258618;28;20225;-71
2023/04/14 01:13:32;;;;;;;4.00;2.13;;;6.60;1.00;;;;;;8263606;28;20183;-68
2023/04/14 01:17:45;;;;;;;2.00;1.50;;;6.60;84.30;;;;;;8262859;28;20270;-67
2023/04/14 01:21:51;;;;;;;2.73;1.53;;;6.60;99.00;;;;;;8265956;28;20226;-67
2023/04/14 01:26:04;;;;;;;2.57;1.80;;;6.60;99.90;;;;;;8256199;28;20219;-69
2023/04/14 01:30:20;;;;;;;3.70;2.00;;;6.70;99.90;;;;;;8259577;28;20235;-68
2023/04/14 01:35:04;;;;;;;3.30;1.90;;;6.70;99.80;;;;;;8264838;28;20202;-68
2023/04/14 01:39:12;;;;;;;4.77;2.10;;;6.60;99.90;;;;;;8258818;28;20207;-67
2023/04/14 01:43:16;;;;;;;4.43;2.00;;;6.60;1.00;;;;;;8261197;28;20198;-68
2023/04/14 01:47:20;;;;;;;2.60;1.97;;;6.50;1.00;;;;;;8265138;28;20299;-67
2023/04/14 01:51:26;;;;;;;3.20;1.67;;;6.50;99.90;;;;;;8259445;28;20186;-67
2023/04/14 01:55:31;;;;;;;2.97;1.83;;;6.50;1.00;;;;;;8258114;28;20214;-67
2023/04/14 01:59:35;;;;;;;3.13;2.23;;;6.40;99.90;;;;;;8273738;28;20215;-71
2023/04/14 02:03:37;;;;;;;4.73;2.07;;;6.40;99.90;;;;;;8254639;28;20195;-70
2023/04/14 02:07:40;;;;;;;3.10;2.10;;;6.40;99.90;;;;;;8259337;28;20219;-67
2023/04/14 02:11:42;;;;;;;2.60;2.20;;;6.40;1.00;;;;;;8262439;28;20198;-66
2023/04/14 02:15:45;;;;;;;6.03;2.57;;;6.30;1.00;;;;;;8252787;28;20221;-67
2023/04/14 02:19:48;;;;;;;3.63;2.10;;;6.30;99.70;;;;;;8257886;28;20196;-67
2023/04/14 02:23:49;;;;;;;3.47;2.10;;;6.30;99.90;;;;;;8256594;28;20191;-66
2023/04/14 02:28:06;;;;;;;5.20;3.73;;;6.20;1.00;;;;;;8247927;28;20233;-67
2023/04/14 02:32:13;;;;;;;5.33;4.83;;;6.20;9.20;;;;;;8256828;28;20195;-68
2023/04/14 02:36:21;;;;;;;6.73;6.03;;;6.20;99.90;;;;;;8254734;28;20191;-68
2023/04/14 02:40:32;;;;;;;8.10;6.73;;;6.20;99.90;;;;;;8253598;28;20191;-68
2023/04/14 02:44:42;;;;;;;9.67;6.20;;;6.20;99.90;;;;;;8256801;28;20184;-68
2023/04/14 02:48:46;;;;;;;10.77;5.63;;;6.20;99.90;;;;;;8257288;28;20239;-67
2023/04/14 02:52:50;;;;;;;9.70;6.87;;;6.10;99.90;;;;;;8264266;28;20187;-68
2023/04/14 02:56:56;;;;;;;5.90;4.37;;;6.10;99.90;;;;;;8246494;28;20234;-68
2023/04/14 03:00:57;;;;;;;6.20;4.20;;;6.10;99.90;;;;;;8256841;28;20188;-67
2023/04/14 03:04:59;;;;;;;5.00;3.60;;;6.10;99.90;;;;;;8258626;28;20236;-68
2023/04/14 03:09:03;;;;;;;4.73;2.87;;;6.10;99.90;;;;;;8262777;28;20211;-67
2023/04/14 03:13:08;;;;;;;4.57;2.97;;;6.10;99.90;;;;;;8268246;28;20191;-67
2023/04/14 03:17:11;;;;;;;7.20;3.47;;;6.10;99.90;;;;;;8265646;28;20199;-68
2023/04/14 03:21:15;;;;;;;5.63;3.27;;;6.10;99.90;;;;;;8267244;28;20203;-68
2023/04/14 03:25:16;;;;;;;3.37;3.00;;;6.10;99.90;;;;;;8264884;28;20269;-68
2023/04/14 03:29:25;;;;;;;6.30;3.33;;;6.10;99.90;;;;;;8264434;28;20216;-68
2023/04/14 03:33:29;;;;;;;4.67;3.33;;;6.00;99.90;;;;;;8262796;28;20187;-68
2023/04/14 03:37:36;;;;;;;7.70;3.60;;;6.00;99.90;;;;;;8268165;28;20199;-68
2023/04/14 03:41:39;;;;;;;6.13;4.37;;;6.00;99.90;;;;;;8264805;28;20219;-67
2023/04/14 03:45:40;;;;;;;5.10;3.83;;;6.00;99.90;;;;;;8264558;28;20252;-69
2023/04/14 03:49:45;;;;;;;4.50;3.53;;;6.00;99.90;;;;;;8260054;28;20219;-67
2023/04/14 03:53:47;;;;;;;6.53;5.27;;;6.00;99.90;;;;;;8263552;28;20298;-66
2023/04/14 03:57:49;;;;;;;6.30;3.70;;;6.00;99.90;;;;;;8261239;28;20219;-70
2023/04/14 04:01:51;;;;;;;7.47;5.20;;;6.00;99.90;;;;;;8263880;28;20195;-70
2023/04/14 04:05:53;;;;;;;6.90;5.03;;;6.00;99.90;;;;;;8262794;28;20194;-69
2023/04/14 04:09:56;;;;;;;6.93;5.30;;;6.00;99.90;;;;;;8266065;28;20216;-69
2023/04/14 04:13:58;;;;;;;6.37;4.77;;;6.00;99.90;;;;;;8259740;28;20266;-69
2023/04/14 04:18:02;;;;;;;7.57;4.97;;;6.00;99.90;;;;;;8253910;28;20195;-71
2023/04/14 04:22:03;;;;;;;8.90;5.10;;;6.00;99.90;;;;;;8256013;28;20210;-71
2023/04/14 04:26:05;;;;;;;9.03;5.90;;;6.00;99.90;;;;;;8251013;28;20235;-70
2023/04/14 04:30:10;;;;;;;6.27;5.13;;;6.00;99.90;;;;;;8255224;28;20270;-69
2023/04/14 04:34:15;;;;;;;8.43;5.90;;;6.00;99.90;;;;;;8258252;28;20183;-69
2023/04/14 04:38:21;;;;;;;8.13;5.53;;;6.10;99.90;;;;;;8259511;28;20242;-71
2023/04/14 04:42:22;;;;;;;10.17;5.50;;;6.10;99.90;;;;;;8254517;28;20190;-68
2023/04/14 04:46:44;;;;;;;6.00;5.10;;;6.10;99.90;;;;;;8258073;28;20202;-69
2023/04/14 04:50:45;;;;;;;8.10;5.40;;;6.10;99.90;;;;;;8254594;28;20195;-70
2023/04/14 04:54:51;;;;;;;8.40;5.70;;;6.10;99.90;;;;;;8266979;28;20226;-70
2023/04/14 04:58:52;;;;;;;8.93;5.70;;;6.10;99.90;;;;;;8256749;28;20357;-70
2023/04/14 05:02:53;;;;;;;6.60;5.23;;;6.10;99.90;;;;;;8254629;28;20208;-70
2023/04/14 05:06:54;;;;;;;8.73;6.07;;;6.20;99.90;;;;;;8259149;28;20199;-71
2023/04/14 05:10:58;;;;;;;9.43;6.43;;;6.20;99.90;;;;;;8251503;28;20294;-70
2023/04/14 05:14:59;;;;;;;9.10;6.03;;;6.20;99.90;;;;;;8255085;28;20186;-71
2023/04/14 05:19:00;;;;;;;7.87;6.20;;;6.30;99.90;;;;;;8254653;28;20192;-71
2023/04/14 05:23:01;;;;;;;9.80;6.60;;;6.30;99.90;;;;;;8250766;28;20241;-71
2023/04/14 05:27:02;;;;;;;12.57;6.73;;;6.30;99.90;;;;;;8249865;28;20219;-70
2023/04/14 05:31:10;;;;;;;11.90;7.37;;;6.40;99.90;;;;;;8261554;28;20187;-70
2023/04/14 05:35:14;;;;;;;9.80;7.10;;;6.40;99.90;;;;;;8256688;28;20187;-71
2023/04/14 05:39:18;;;;;;;12.13;8.20;;;6.50;99.90;;;;;;8253017;28;20183;-69
2023/04/14 05:43:19;;;;;;;12.80;8.17;;;6.50;99.90;;;;;;8249696;28;20222;-70
2023/04/14 05:47:20;;;;;;;13.63;7.93;;;6.50;99.90;;;;;;8253657;28;20199;-71
2023/04/14 05:51:27;;;;;;;8.93;6.90;;;6.60;99.90;;;;;;8260023;28;20207;-70
2023/04/14 05:55:29;;;;;;;11.90;7.63;;;6.70;99.90;;;;;;8251953;28;20199;-71
2023/04/14 05:59:30;;;;;;;11.87;8.50;;;6.80;99.90;;;;;;8250356;28;20215;-70
2023/04/14 06:03:36;;;;;;;16.57;10.30;;;6.90;99.90;;;;;;8250996;28;20203;-71
2023/04/14 06:07:40;;;;;;;12.80;9.57;;;6.90;99.90;;;;;;8254912;28;20306;-71
2023/04/14 06:11:41;;;;;;;11.57;9.33;;;7.00;99.90;;;;;;8259421;28;20183;-71
2023/04/14 06:16:00;;;;;;;17.20;11.03;;;7.00;99.90;;;;;;8252329;28;20306;-70
2023/04/14 06:20:03;;;;;;;15.63;11.30;;;7.10;99.90;;;;;;8250468;28;20283;-70
2023/04/14 06:24:06;;;;;;;21.47;12.73;;;7.00;99.90;;;;;;8247554;28;20262;-70
2023/04/14 06:28:07;;;;;;;23.03;14.17;;;7.10;99.90;;;;;;8255347;28;20310;-70
2023/04/14 06:32:08;;;;;;;19.73;14.20;;;7.10;99.90;;;;;;8261409;28;20183;-69
2023/04/14 06:36:15;;;;;;;26.77;15.77;;;7.10;99.90;;;;;;8257990;28;20214;-70
2023/04/14 06:40:18;;;;;;;25.37;16.40;;;7.10;99.90;;;;;;8255908;28;20187;-69
2023/04/14 06:44:18;;;;;;;22.83;15.70;;;7.10;99.90;;;;;;8272651;28;20230;-69
2023/04/14 06:48:20;;;;;;;19.50;14.40;;;7.20;99.90;;;;;;8261312;28;20219;-70
2023/04/14 06:52:21;;;;;;;26.80;16.87;;;7.30;99.90;;;;;;8256784;28;20274;-69
2023/04/14 06:56:22;;;;;;;24.40;16.37;;;7.50;99.90;;;;;;8260735;28;20226;-67
2023/04/14 07:00:23;;;;;;;29.27;19.47;;;7.70;99.90;;;;;;8267493;28;20187;-68
2023/04/14 07:04:24;;;;;;;28.83;19.77;;;7.80;99.90;;;;;;8266199;28;20215;-67
2023/04/14 07:08:30;;;;;;;27.87;18.37;;;7.90;99.90;;;;;;8267671;28;20208;-68
2023/04/14 07:12:35;;;;;;;28.63;19.13;;;8.00;99.90;;;;;;8264261;28;20218;-70
2023/04/14 07:16:36;;;;;;;39.70;27.47;;;8.10;99.90;;;;;;8269446;28;20280;-68
2023/04/14 07:20:37;;;;;;;35.93;25.30;;;8.10;99.90;;;;;;8264433;28;20206;-68
2023/04/14 07:24:41;;;;;;;34.40;22.53;;;8.20;99.90;;;;;;8270280;28;20222;-69
2023/04/14 07:28:43;;;;;;;34.67;21.40;;;8.30;99.90;;;;;;8262132;28;20223;-69
2023/04/14 07:32:45;;;;;;;32.60;23.30;;;8.40;99.90;;;;;;8266251;28;20197;-69
2023/04/14 07:36:46;;;;;;;31.40;22.43;;;8.40;99.90;;;;;;8266533;28;20188;-69
2023/04/14 07:40:48;;;;;;;35.07;23.60;;;8.40;99.90;;;;;;8265316;28;20234;-69
2023/04/14 07:44:50;;;;;;;22.10;17.97;;;8.50;99.90;;;;;;8267853;28;20191;-69
2023/04/14 07:48:51;;;;;;;25.80;18.40;;;8.50;99.90;;;;;;8274244;28;20224;-69
2023/04/14 07:52:52;;;;;;;25.00;17.43;;;8.50;99.90;;;;;;8270251;28;20192;-69
2023/04/14 07:56:53;;;;;;;26.20;18.07;;;8.30;99.90;;;;;;8265564;28;20259;-68
2023/04/14 08:01:14;;;;;;;21.97;16.97;;;8.30;99.90;;;;;;8265426;28;20188;-70
2023/04/14 08:05:35;;;;;;;26.90;21.13;;;8.40;99.90;;;;;;8266637;28;20282;-73
2023/04/14 08:09:41;;;;;;;27.03;18.60;;;8.50;99.90;;;;;;8266620;28;20219;-71
2023/04/14 08:13:53;;;;;;;24.77;18.93;;;8.50;99.90;;;;;;8268735;28;20200;-70
2023/04/14 08:17:54;;;;;;;29.03;21.43;;;8.70;99.90;;;;;;8266910;28;20215;-69
2023/04/14 08:21:56;;;;;;;32.77;24.63;;;8.90;99.90;;;;;;8265440;28;20195;-70
2023/04/14 08:26:09;;;;;;;33.30;24.50;;;9.10;99.90;;;;;;8265309;28;20268;-70
2023/04/14 08:30:16;;;;;;;29.07;22.90;;;9.30;99.90;;;;;;8264989;28;20218;-68
2023/04/14 08:34:17;;;;;;;26.20;18.70;;;9.40;99.90;;;;;;8263355;28;20211;-70
2023/04/14 08:38:22;;;;;;;21.40;15.70;;;9.50;99.90;;;;;;8265348;28;20204;-69
2023/04/14 08:42:25;;;;;;;19.90;15.17;;;9.50;99.90;;;;;;8267269;28;20326;-71
2023/04/14 08:46:27;;;;;;;20.60;16.17;;;9.50;99.90;;;;;;8268442;28;20215;-69
2023/04/14 08:50:58;;;;;;;23.07;16.90;;;9.40;99.90;;;;;;8265085;28;20237;-70
2023/04/14 08:55:28;;;;;;;;;;;;;;;;;;;;;
2023/04/14 08:59:30;;;;;;;20.10;15.53;;;9.20;99.90;;;;;;8257543;28;20242;-71
2023/04/14 09:03:40;;;;;;;18.40;14.93;;;9.00;99.90;;;;;;8262186;28;20192;-72
2023/04/14 09:07:44;;;;;;;22.17;16.63;;;8.90;99.90;;;;;;8255729;28;20211;-73
2023/04/14 09:11:50;;;;;;;18.30;14.43;;;8.90;99.90;;;;;;8256933;28;20196;-72
2023/04/14 09:20:46;;;;;;;21.33;16.73;;;9.00;99.90;;;;;;8259170;28;20223;-71
2023/04/14 09:24:49;;;;;;;21.93;15.43;;;9.10;99.90;;;;;;8257460;28;20206;-72
2023/04/14 09:28:51;;;;;;;19.23;15.33;;;9.10;99.90;;;;;;8263192;28;20246;-70
2023/04/14 09:32:52;;;;;;;21.03;15.87;;;9.00;99.90;;;;;;8266164;28;20183;-72
2023/04/14 09:37:04;;;;;;;18.77;15.43;;;9.10;99.90;;;;;;8260288;28;20190;-70
2023/04/14 09:41:24;;;;;;;18.30;14.47;;;9.10;99.90;;;;;;8267392;28;20189;-71
2023/04/14 09:45:42;;;;;;;18.70;15.50;;;9.10;99.90;;;;;;8263352;28;20188;-72
2023/04/14 09:49:56;;;;;;;19.67;15.67;;;9.20;99.90;;;;;;8260464;28;20219;-71
2023/04/14 09:54:04;;;;;;;24.50;17.03;;;9.20;99.90;;;;;;8268405;28;20191;-73
2023/04/14 09:58:11;;;;;;;22.73;16.20;;;9.10;99.90;;;;;;8255921;28;20234;-71
2023/04/14 10:02:12;;;;;;;21.80;17.07;;;9.20;99.90;;;;;;8262595;28;20314;-70
2023/04/14 10:06:22;;;;;;;21.43;16.67;;;9.20;99.90;;;;;;8255658;28;20240;-70
2023/04/14 10:10:26;;;;;;;22.67;17.43;;;9.20;99.90;;;;;;8259961;28;20223;-69
2023/04/14 10:14:28;;;;;;;22.70;18.27;;;9.20;99.90;;;;;;8254233;28;20287;-69
2023/04/14 10:18:29;;;;;;;22.77;16.43;;;9.30;99.90;;;;;;8253514;28;20197;-68
2023/04/14 10:22:30;;;;;;;26.87;18.13;;;9.50;99.90;;;;;;8254812;28;20272;-68
2023/04/14 10:26:32;;;;;;;61.53;34.97;;;9.60;99.90;;;;;;8248205;28;20198;-70
2023/04/14 10:30:33;;;;;;;56.03;37.10;;;9.70;99.90;;;;;;8249384;28;20218;-70
2023/04/14 10:34:36;;;;;;;36.10;24.57;;;9.70;99.90;;;;;;8253629;28;20193;-69
2023/04/14 10:38:44;;;;;;;21.97;17.43;;;9.90;99.90;;;;;;8250354;28;20192;-69
2023/04/14 10:42:53;;;;;;;41.37;26.80;;;9.90;99.90;;;;;;8252057;28;20207;-69
2023/04/14 10:46:55;;;;;;;26.80;17.83;;;9.90;99.90;;;;;;8253475;28;20283;-68
2023/04/14 10:50:58;;;;;;;23.67;17.07;;;9.90;99.90;;;;;;8259410;28;20186;-69
2023/04/14 10:55:07;;;;;;;25.27;18.23;;;9.90;99.90;;;;;;8259197;28;20191;-69
2023/04/14 10:59:09;;;;;;;67.13;33.03;;;9.90;99.90;;;;;;8254030;28;20228;-68
2023/04/14 11:03:16;;;;;;;32.97;23.40;;;9.90;99.90;;;;;;8261540;28;20190;-69
2023/04/14 11:07:20;;;;;;;22.87;18.30;;;10.00;99.90;;;;;;8251249;28;20218;-69
2023/04/14 11:11:27;;;;;;;24.23;19.03;;;10.00;99.90;;;;;;8254102;28;20199;-69
2023/04/14 11:15:56;;;;;;;23.67;19.47;;;9.90;99.90;;;;;;8257498;28;20194;-70
2023/04/14 11:19:57;;;;;;;25.67;20.20;;;9.70;99.90;;;;;;8246726;28;20344;-70
2023/04/14 11:23:58;;;;;;;27.07;20.80;;;9.70;99.90;;;;;;8261464;28;20189;-71
2023/04/14 11:28:02;;;;;;;26.57;20.80;;;9.70;99.90;;;;;;8256691;28;20216;-71
2023/04/14 11:32:05;;;;;;;25.30;20.60;;;9.90;99.90;;;;;;8268305;28;20182;-71
2023/04/14 11:36:11;;;;;;;26.53;21.67;;;10.00;99.90;;;;;;8261249;28;20190;-71
2023/04/14 11:40:14;;;;;;;23.73;19.50;;;10.10;99.90;;;;;;8264168;28;20209;-71
2023/04/14 11:44:20;;;;;;;25.40;21.13;;;9.90;99.90;;;;;;8264691;28;20293;-72
2023/04/14 11:48:21;;;;;;;23.93;19.47;;;9.80;99.90;;;;;;8261340;28;20222;-72
2023/04/14 11:52:22;;;;;;;25.03;20.60;;;9.60;99.90;;;;;;8262129;28;20315;-72
2023/04/14 11:56:23;;;;;;;26.40;21.20;;;9.50;99.90;;;;;;8264375;28;20209;-71
2023/04/14 12:00:29;;;;;;;25.10;21.57;;;9.50;99.90;;;;;;8263585;28;20331;-71
2023/04/14 12:04:30;;;;;;;27.77;22.67;;;9.50;99.90;;;;;;8258243;28;20195;-72
2023/04/14 12:08:38;;;;;;;25.83;20.87;;;9.40;99.90;;;;;;8259542;28;20224;-71
2023/04/14 12:12:40;;;;;;;25.10;21.60;;;9.40;99.90;;;;;;8262707;28;20197;-72
2023/04/14 12:16:44;;;;;;;27.97;23.73;;;9.40;99.90;;;;;;8265616;28;20296;-71
2023/04/14 12:21:00;;;;;;;31.30;24.37;;;9.40;99.90;;;;;;8262731;28;20200;-70
2023/04/14 12:25:11;;;;;;;27.63;23.47;;;9.50;99.90;;;;;;8268768;28;20224;-71
2023/04/14 12:29:12;;;;;;;29.03;23.90;;;9.60;99.90;;;;;;8260807;28;20221;-71
2023/04/14 12:33:13;;;;;;;31.40;26.00;;;9.60;99.90;;;;;;8260422;28;20190;-70
2023/04/14 12:37:25;;;;;;;32.67;26.67;;;9.60;99.90;;;;;;8260353;28;20195;-70
2023/04/14 12:41:37;;;;;;;35.47;27.20;;;9.60;99.90;;;;;;8261098;28;20195;-71
2023/04/14 12:45:49;;;;;;;39.67;29.97;;;9.70;99.90;;;;;;8271426;28;20193;-71
2023/04/14 12:49:52;;;;;;;29.20;24.33;;;9.90;99.90;;;;;;8261381;28;20239;-71
2023/04/14 12:54:07;;;;;;;29.23;25.50;;;10.10;99.90;;;;;;8263625;28;20259;-71
2023/04/14 12:58:09;;;;;;;35.23;27.97;;;10.00;99.90;;;;;;8246792;28;20238;-71
2023/04/14 13:02:10;;;;;;;33.87;26.97;;;10.00;99.90;;;;;;8248879;28;20231;-71
2023/04/14 13:06:30;;;;;;;33.33;27.47;;;10.00;99.90;;;;;;8256023;28;20202;-72
2023/04/14 13:10:31;;;;;;;36.77;29.77;;;9.90;99.90;;;;;;8261433;28;20215;-71
2023/04/14 13:14:32;;;;;;;36.17;29.17;;;10.10;99.90;;;;;;8257161;28;20210;-71
2023/04/14 13:18:36;;;;;;;40.10;30.17;;;10.20;99.90;;;;;;8245636;28;20195;-71
2023/04/14 13:22:40;;;;;;;36.27;29.93;;;10.20;99.90;;;;;;8247743;28;20251;-71
2023/04/14 13:26:41;;;;;;;39.23;32.50;;;10.00;99.90;;;;;;8269367;28;20198;-71
2023/04/14 13:30:43;;;;;;;41.63;32.43;;;10.00;99.90;;;;;;8259625;28;20257;-71
2023/04/14 13:34:50;;;;;;;39.17;33.17;;;10.00;99.90;;;;;;8261495;28;20194;-70
2023/04/14 13:38:58;;;;;;;39.53;31.70;;;10.00;99.90;;;;;;8262791;28;20202;-70
2023/04/14 13:43:07;;;;;;;48.93;35.10;;;9.90;99.90;;;;;;8251160;28;20185;-71
2023/04/14 13:47:09;;;;;;;48.13;36.73;;;9.90;99.90;;;;;;8267062;28;20193;-69
2023/04/14 13:51:10;;;;;;;46.57;36.20;;;9.90;99.90;;;;;;8254912;28;20194;-70
2023/04/14 13:55:18;;;;;;;47.13;37.33;;;9.90;99.90;;;;;;8257323;28;20193;-70
2023/04/14 13:59:19;;;;;;;47.33;37.37;;;9.80;99.90;;;;;;8261510;28;20228;-70
2023/04/14 14:03:23;;;;;;;48.97;38.17;;;9.70;99.90;;;;;;8252311;28;20196;-70
2023/04/14 14:07:25;;;;;;;52.93;40.50;;;9.80;99.90;;;;;;8255043;28;20201;-71
2023/04/14 14:11:26;;;;;;;48.30;38.10;;;9.80;99.90;;;;;;8257479;28;20193;-69
2023/04/14 14:15:27;;;;;;;49.20;38.27;;;9.90;99.90;;;;;;8254594;28;20188;-70
2023/04/14 14:19:28;;;;;;;50.90;39.63;;;9.90;99.90;;;;;;8252717;28;20317;-69
2023/04/14 14:23:38;;;;;;;47.40;38.60;;;10.00;99.90;;;;;;8257041;28;20184;-71
2023/04/14 14:27:39;;;;;;;53.33;40.00;;;10.00;99.90;;;;;;8256885;28;20238;-71
2023/04/14 14:31:42;;;;;;;54.27;39.40;;;10.00;99.90;;;;;;8256074;28;20278;-71
2023/04/14 14:35:43;;;;;;;50.30;39.70;;;10.00;99.90;;;;;;8254018;28;20270;-69
2023/04/14 14:39:44;;;;;;;58.43;45.27;;;10.00;99.90;;;;;;8257580;28;20225;-69
2023/04/14 14:43:45;;;;;;;63.43;46.10;;;9.90;99.90;;;;;;8246835;28;20196;-71
2023/04/14 14:47:46;;;;;;;56.60;41.17;;;9.80;99.90;;;;;;8258052;28;20212;-70
2023/04/14 14:51:47;;;;;;;54.67;43.00;;;9.70;99.90;;;;;;8252054;28;20188;-70
2023/04/14 14:55:51;;;;;;;60.03;45.33;;;9.70;99.90;;;;;;8252113;28;20300;-72
2023/04/14 14:59:53;;;;;;;61.40;44.80;;;9.60;99.90;;;;;;8250226;28;20287;-72
2023/04/14 15:03:54;;;;;;;64.07;46.90;;;9.60;99.90;;;;;;8256200;28;20181;-72
2023/04/14 15:07:55;;;;;;;63.00;47.10;;;9.60;99.90;;;;;;8254918;28;20243;-70
2023/04/14 15:11:56;;;;;;;64.80;46.57;;;9.60;99.90;;;;;;8266773;28;20212;-71
2023/04/14 15:15:57;;;;;;;63.90;48.23;;;9.60;99.90;;;;;;8266280;28;20194;-72
2023/04/14 15:20:03;;;;;;;60.60;45.00;;;9.60;99.90;;;;;;8263685;28;20193;-73
2023/04/14 15:24:04;;;;;;;62.63;46.13;;;9.60;99.90;;;;;;8269457;28;20200;-73
2023/04/14 15:28:06;;;;;;;60.83;45.77;;;9.60;99.90;;;;;;8265504;28;20201;-72
2023/04/14 15:32:07;;;;;;;60.60;45.50;;;9.60;99.90;;;;;;8267702;28;20187;-72
2023/04/14 15:36:11;;;;;;;63.77;45.60;;;9.60;99.90;;;;;;8263902;28;20192;-72
2023/04/14 15:40:17;;;;;;;65.90;47.67;;;9.50;99.90;;;;;;8263741;28;20212;-73
2023/04/14 15:44:21;;;;;;;67.80;48.97;;;9.50;99.90;;;;;;8262819;28;20201;-73
2023/04/14 15:48:22;;;;;;;72.70;50.60;;;9.50;99.90;;;;;;8265692;28;20235;-71
2023/04/14 15:52:23;;;;;;;72.47;51.07;;;9.40;99.90;;;;;;8267819;28;20281;-72
2023/04/14 15:56:24;;;;;;;71.73;51.50;;;9.40;99.90;;;;;;8260136;28;20213;-72
2023/04/14 16:00:25;;;;;;;69.70;49.93;;;9.40;99.90;;;;;;8261907;28;20200;-73
2023/04/14 16:04:27;;;;;;;71.27;52.03;;;9.40;99.90;;;;;;8267347;28;20192;-73
2023/04/14 16:08:28;;;;;;;73.27;50.13;;;9.40;99.90;;;;;;8271294;28;20207;-71
2023/04/14 16:12:29;;;;;;;74.73;52.73;;;9.30;99.90;;;;;;8267153;28;20214;-72
2023/04/14 16:16:31;;;;;;;78.07;53.70;;;9.30;99.90;;;;;;8271507;28;20187;-72
2023/04/14 16:20:33;;;;;;;82.47;54.93;;;9.30;99.90;;;;;;8263780;28;20261;-71
2023/04/14 16:24:33;;;;;;;87.17;55.83;;;9.20;99.90;;;;;;8266397;28;20216;-72
2023/04/14 16:28:35;;;;;;;87.53;55.70;;;9.20;99.90;;;;;;8269272;28;20218;-72
2023/04/14 16:32:36;;;;;;;88.20;57.60;;;9.20;99.90;;;;;;8263759;28;20195;-71
2023/04/14 16:36:36;;;;;;;81.53;53.97;;;9.20;99.90;;;;;;8266907;28;20195;-72
2023/04/14 16:40:38;;;;;;;86.00;55.83;;;9.20;99.90;;;;;;8265609;28;20191;-72
2023/04/14 16:44:40;;;;;;;69.37;50.43;;;9.20;99.90;;;;;;8264140;28;20189;-70
2023/04/14 16:48:41;;;;;;;82.10;57.27;;;9.30;99.90;;;;;;8261803;28;20223;-71
2023/04/14 16:52:51;;;;;;;71.93;48.87;;;9.40;99.90;;;;;;8262493;28;20246;-70
2023/04/14 16:56:58;;;;;;;72.73;51.70;;;9.40;99.90;;;;;;8267605;28;20250;-71
2023/04/14 17:01:00;;;;;;;71.90;51.73;;;9.40;99.90;;;;;;8266154;28;20259;-72
2023/04/14 17:05:02;;;;;;;66.87;48.37;;;9.30;99.90;;;;;;8261773;28;20201;-71
2023/04/14 17:09:06;;;;;;;91.23;57.97;;;9.30;99.90;;;;;;8257095;28;20219;-70
2023/04/14 17:13:10;;;;;;;73.70;50.60;;;9.20;99.90;;;;;;8265730;28;20187;-72
2023/04/14 17:17:17;;;;;;;74.27;50.77;;;9.20;99.90;;;;;;8269318;28;20188;-71
2023/04/14 17:21:21;;;;;;;72.73;51.53;;;9.10;99.90;;;;;;8266461;28;20188;-72
2023/04/14 17:25:24;;;;;;;90.43;56.83;;;9.10;99.90;;;;;;8264087;28;20183;-71
2023/04/14 17:29:26;;;;;;;84.30;55.73;;;9.10;99.90;;;;;;8267818;28;20215;-73
2023/04/14 17:33:30;;;;;;;83.53;55.33;;;9.10;99.90;;;;;;8263072;28;20191;-72
2023/04/14 17:37:31;;;;;;;88.97;57.47;;;9.10;99.90;;;;;;8266737;28;20186;-72
2023/04/14 17:41:35;;;;;;;85.43;58.53;;;9.00;99.90;;;;;;8267898;28;20454;-73
2023/04/14 17:45:38;;;;;;;81.53;53.97;;;9.00;99.90;;;;;;8266703;28;20282;-71
2023/04/14 17:49:42;;;;;;;82.90;53.17;;;9.00;99.90;;;;;;8263894;28;20217;-72
2023/04/14 17:53:43;;;;;;;77.80;54.27;;;9.00;99.90;;;;;;8262222;28;20187;-72
2023/04/14 17:57:45;;;;;;;81.10;50.53;;;9.00;99.90;;;;;;8261455;28;20227;-72
2023/04/14 18:01:46;;;;;;;80.13;52.97;;;9.00;99.90;;;;;;8268944;28;20314;-72
2023/04/14 18:05:56;;;;;;;77.33;50.87;;;9.00;99.90;;;;;;8265216;28;20191;-71
2023/04/14 18:09:58;;;;;;;74.77;50.17;;;9.00;99.90;;;;;;8260820;28;20291;-71
2023/04/14 18:13:59;;;;;;;83.67;52.57;;;9.00;99.90;;;;;;8266678;28;20222;-72
2023/04/14 18:18:00;;;;;;;73.30;48.70;;;9.00;99.90;;;;;;8262420;28;20282;-69
2023/04/14 18:22:02;;;;;;;72.03;48.60;;;9.00;99.90;;;;;;8264350;28;20234;-68
2023/04/14 18:26:03;;;;;;;74.20;48.60;;;9.00;99.90;;;;;;8261069;28;20195;-69
2023/04/14 18:30:07;;;;;;;73.00;47.63;;;9.00;99.90;;;;;;8264192;28;20211;-69
2023/04/14 18:34:10;;;;;;;78.30;49.27;;;9.00;99.90;;;;;;8263492;28;20191;-66
2023/04/14 18:38:12;;;;;;;71.10;48.17;;;9.00;99.90;;;;;;8261045;28;20219;-69
2023/04/14 18:42:14;;;;;;;72.17;45.80;;;9.00;99.90;;;;;;8269558;28;20234;-67
2023/04/14 18:46:15;;;;;;;74.33;46.10;;;9.00;99.90;;;;;;8265490;28;20258;-68
2023/04/14 18:50:17;;;;;;;80.67;50.70;;;9.00;99.90;;;;;;8266955;28;20211;-69
2023/04/14 18:54:18;;;;;;;79.50;50.10;;;9.00;99.90;;;;;;8268239;28;20192;-68
2023/04/14 18:58:19;;;;;;;79.53;50.73;;;9.00;99.90;;;;;;8261907;28;20226;-68
2023/04/14 19:02:20;;;;;;;79.67;48.77;;;9.00;99.90;;;;;;8266122;28;20195;-68
2023/04/14 19:06:25;;;;;;;72.40;45.47;;;9.00;99.90;;;;;;8261532;28;20191;-68
2023/04/14 19:10:26;;;;;;;70.20;46.20;;;9.00;99.90;;;;;;8261342;28;20350;-68
2023/04/14 19:14:28;;;;;;;71.57;46.10;;;9.00;99.90;;;;;;8259187;28;20183;-68
2023/04/14 19:18:29;;;;;;;72.83;46.67;;;9.00;99.90;;;;;;8260895;28;20261;-68
2023/04/14 19:22:32;;;;;;;73.13;43.07;;;9.00;99.90;;;;;;8260976;28;20290;-67
2023/04/14 19:26:36;;;;;;;58.33;37.60;;;9.00;99.90;;;;;;8268233;28;20288;-67
2023/04/14 19:30:37;;;;;;;61.20;40.00;;;9.10;99.90;;;;;;8265282;28;20230;-67
2023/04/14 19:34:38;;;;;;;60.87;38.00;;;9.10;99.90;;;;;;8270656;28;20285;-69
2023/04/14 19:38:42;;;;;;;57.57;37.83;;;9.10;99.90;;;;;;8263866;28;20189;-68
2023/04/14 19:42:43;;;;;;;56.40;36.73;;;9.10;99.90;;;;;;8265263;28;20297;-67
2023/04/14 19:46:45;;;;;;;56.70;36.10;;;9.10;99.90;;;;;;8265857;28;20196;-67
2023/04/14 19:50:49;;;;;;;60.10;37.30;;;9.10;99.90;;;;;;8261983;28;20226;-67
2023/04/14 19:54:51;;;;;;;59.33;39.53;;;9.00;99.90;;;;;;8267735;28;20196;-68
2023/04/14 19:58:52;;;;;;;62.83;38.53;;;9.00;99.90;;;;;;8266737;28;20223;-66
2023/04/14 20:02:54;;;;;;;62.90;40.67;;;9.00;99.90;;;;;;8267108;28;20203;-67
2023/04/14 20:06:55;;;;;;;55.83;37.03;;;9.00;99.90;;;;;;8261724;28;20242;-66
2023/04/14 20:10:56;;;;;;;63.03;40.23;;;9.10;99.90;;;;;;8270333;28;20216;-66
2023/04/14 20:14:57;;;;;;;56.17;36.60;;;9.10;99.90;;;;;;8266931;28;20196;-67
2023/04/14 20:18:59;;;;;;;51.37;33.83;;;9.10;99.90;;;;;;8259786;28;20223;-66
2023/04/14 20:23:00;;;;;;;56.23;35.37;;;9.10;99.90;;;;;;8282642;28;20230;-67
2023/04/14 20:27:02;;;;;;;49.83;34.00;;;9.10;99.90;;;;;;8296741;28;20188;-67
2023/04/14 20:31:05;;;;;;;53.30;36.07;;;9.10;99.90;;;;;;8296206;28;20253;-69
2023/04/14 20:35:14;;;;;;;46.93;33.20;;;9.20;99.90;;;;;;8293505;28;20191;-69
2023/04/14 20:39:18;;;;;;;50.10;31.90;;;9.20;99.90;;;;;;8290514;28;20198;-68
2023/04/14 20:43:20;;;;;;;44.63;30.70;;;9.10;99.90;;;;;;8291118;28;20198;-69
2023/04/14 20:47:22;;;;;;;37.20;27.37;;;9.10;99.90;;;;;;8289079;28;20187;-68
2023/04/14 20:51:30;;;;;;;32.53;23.33;;;9.10;99.90;;;;;;8296422;28;20206;-68
2023/04/14 20:55:35;;;;;;;42.33;28.80;;;9.20;99.90;;;;;;8293920;28;20182;-68
2023/04/14 20:59:36;;;;;;;42.33;29.77;;;9.20;99.90;;;;;;8292236;28;20200;-67
2023/04/14 21:03:40;;;;;;;46.17;31.13;;;9.20;99.90;;;;;;8292925;28;20194;-67
2023/04/14 21:08:11;;;;;;;56.50;36.00;;;9.10;99.90;;;;;;8293953;28;20297;-67